Time;durP1;ratioP1;P1;durP2;ratioP2;P2;SDS_P1;SDS_P2;PMS_P1;PMS_P2;Temp;Humidity;BMP_temperature;BMP_pressure;BME280_temperature;BME280_humidity;BME280_pressure;Samples;Min_cycle;Max_cycle;Signal;HPM_P1;HPM_P2
2022/04/15 00:00:31;;;;;;;2.30;1.23;;;23.50;39.00;;;;;;5046079;28;20036;-43
2022/04/15 00:02:57;;;;;;;2.72;1.13;;;23.50;39.10;;;;;;5045862;28;20218;-43
2022/04/15 00:05:34;;;;;;;2.63;1.40;;;23.50;39.00;;;;;;5045710;28;20094;-43
2022/04/15 00:08:00;;;;;;;2.65;1.25;;;23.50;39.10;;;;;;5046024;28;20507;-43
2022/04/15 00:10:28;;;;;;;3.38;1.05;;;23.50;39.20;;;;;;5045623;28;20037;-43
2022/04/15 00:12:57;;;;;;;3.30;1.27;;;23.50;39.10;;;;;;5045758;28;20025;-43
2022/04/15 00:15:24;;;;;;;2.33;1.15;;;23.50;39.20;;;;;;5045612;28;20021;-43
2022/04/15 00:17:52;;;;;;;3.00;1.52;;;23.50;39.10;;;;;;5038221;28;20028;-43
2022/04/15 00:20:18;;;;;;;2.22;1.30;;;23.50;39.10;;;;;;5026162;28;20242;-43
2022/04/15 00:22:44;;;;;;;3.00;1.23;;;23.50;38.90;;;;;;5025607;28;20040;-43
2022/04/15 00:25:10;;;;;;;2.25;1.35;;;23.50;39.00;;;;;;5024947;28;20498;-43
2022/04/15 00:27:37;;;;;;;2.88;1.30;;;23.50;38.90;;;;;;5026007;28;20025;-43
2022/04/15 00:30:05;;;;;;;2.55;1.17;;;23.50;38.90;;;;;;5025743;28;20026;-43
2022/04/15 00:32:30;;;;;;;3.05;1.25;;;23.50;38.90;;;;;;5025457;28;20037;-43
2022/04/15 00:34:56;;;;;;;2.92;1.17;;;23.50;39.00;;;;;;5025341;28;20030;-43
2022/04/15 00:37:23;;;;;;;2.42;1.08;;;23.50;39.00;;;;;;5038146;28;20029;-43
2022/04/15 00:39:49;;;;;;;2.40;1.23;;;23.50;39.00;;;;;;5042554;28;20028;-43
2022/04/15 00:42:15;;;;;;;2.88;1.40;;;23.50;39.00;;;;;;5044659;28;20029;-43
2022/04/15 00:44:40;;;;;;;3.03;1.23;;;23.40;38.90;;;;;;5044496;28;20044;-43
2022/04/15 00:47:21;;;;;;;2.40;1.30;;;23.40;39.10;;;;;;5042626;28;20033;-43
2022/04/15 00:49:47;;;;;;;2.45;1.35;;;23.50;39.10;;;;;;5024493;28;20091;-43
2022/04/15 00:52:14;;;;;;;2.58;1.20;;;23.40;39.10;;;;;;5039825;28;20037;-43
2022/04/15 00:54:42;;;;;;;2.72;1.42;;;23.50;39.10;;;;;;5044545;28;20020;-43
2022/04/15 00:57:11;;;;;;;2.35;1.30;;;23.40;39.10;;;;;;5044593;28;20485;-43
2022/04/15 00:59:38;;;;;;;2.42;1.20;;;23.40;39.20;;;;;;5045179;28;20757;-43
2022/04/15 01:02:05;;;;;;;2.50;1.30;;;23.40;39.00;;;;;;5044946;28;20040;-43
2022/04/15 01:04:31;;;;;;;2.60;1.45;;;23.40;39.00;;;;;;5043821;28;20036;-43
2022/04/15 01:07:08;;;;;;;3.20;1.58;;;23.40;38.90;;;;;;5031406;28;20033;-43
2022/04/15 01:09:42;;;;;;;2.33;1.23;;;23.40;38.90;;;;;;5023876;28;20037;-43
2022/04/15 01:12:12;;;;;;;2.28;1.13;;;23.40;38.90;;;;;;5024376;28;20037;-43
2022/04/15 01:14:38;;;;;;;2.67;1.23;;;23.40;38.90;;;;;;5024180;28;20385;-43
2022/04/15 01:17:05;;;;;;;3.80;1.38;;;23.40;38.90;;;;;;5023343;28;20025;-43
2022/04/15 01:19:30;;;;;;;2.30;1.10;;;23.40;38.90;;;;;;5023836;28;20519;-43
2022/04/15 01:22:01;;;;;;;2.38;1.30;;;23.40;39.00;;;;;;5036469;28;20033;-43
2022/04/15 01:24:29;;;;;;;2.15;1.00;;;23.40;39.00;;;;;;5043989;28;20056;-43
2022/04/15 01:26:54;;;;;;;2.05;1.13;;;23.30;38.90;;;;;;5042742;28;20519;-43
2022/04/15 01:29:20;;;;;;;2.63;1.20;;;23.40;39.00;;;;;;5044132;28;20048;-43
2022/04/15 01:31:45;;;;;;;2.35;1.35;;;23.40;39.10;;;;;;5044111;28;20489;-43
2022/04/15 01:34:11;;;;;;;2.33;1.33;;;23.40;39.10;;;;;;5044277;28;20886;-43
2022/04/15 01:36:37;;;;;;;2.58;1.30;;;23.30;39.10;;;;;;5042102;28;20404;-43
2022/04/15 01:39:02;;;;;;;2.50;1.42;;;23.30;39.10;;;;;;5040064;28;20041;-43
2022/04/15 01:41:28;;;;;;;1.83;0.95;;;23.30;39.10;;;;;;5044129;28;20024;-42
2022/04/15 01:43:54;;;;;;;2.10;1.05;;;23.30;39.10;;;;;;5043492;28;20520;-43
2022/04/15 01:46:19;;;;;;;2.50;1.20;;;23.30;39.10;;;;;;5042218;28;20516;-43
2022/04/15 01:48:45;;;;;;;3.08;1.52;;;23.30;39.10;;;;;;5028097;28;20033;-43
2022/04/15 01:51:11;;;;;;;3.17;1.20;;;23.30;39.10;;;;;;5029663;28;20025;-42
2022/04/15 01:53:36;;;;;;;2.05;1.23;;;23.30;38.90;;;;;;5043259;28;20524;-43
2022/04/15 01:56:02;;;;;;;2.05;0.98;;;23.30;38.90;;;;;;5043752;28;20029;-43
2022/04/15 01:58:28;;;;;;;2.70;1.08;;;23.30;39.00;;;;;;5044497;28;20504;-43
2022/04/15 02:00:53;;;;;;;2.95;1.30;;;23.30;38.90;;;;;;5043838;28;20065;-43
2022/04/15 02:03:19;;;;;;;2.08;1.20;;;23.30;39.00;;;;;;5044357;28;20032;-43
2022/04/15 02:05:45;;;;;;;2.70;1.10;;;23.30;38.90;;;;;;5043625;28;20115;-43
2022/04/15 02:08:10;;;;;;;2.70;1.10;;;23.30;39.00;;;;;;5044189;28;20033;-43
2022/04/15 02:10:36;;;;;;;3.45;1.33;;;23.30;39.00;;;;;;5043814;28;20134;-43
2022/04/15 02:13:01;;;;;;;2.45;1.05;;;23.30;39.00;;;;;;5043997;28;20048;-43
2022/04/15 02:15:27;;;;;;;2.15;1.20;;;23.30;38.90;;;;;;5044672;28;20048;-43
2022/04/15 02:17:54;;;;;;;1.95;0.98;;;23.30;39.00;;;;;;5039159;28;20044;-43
2022/04/15 02:20:19;;;;;;;2.13;1.23;;;23.30;39.00;;;;;;5028096;28;20022;-43
2022/04/15 02:22:45;;;;;;;2.28;1.08;;;23.30;39.10;;;;;;5044756;28;20036;-42
2022/04/15 02:25:11;;;;;;;2.50;1.30;;;23.20;39.00;;;;;;5045849;28;20666;-43
2022/04/15 02:27:36;;;;;;;4.82;1.40;;;23.20;38.90;;;;;;5047909;28;20116;-43
2022/04/15 02:30:03;;;;;;;2.22;1.10;;;23.20;39.00;;;;;;5047666;28;20021;-43
2022/04/15 02:32:29;;;;;;;2.33;1.10;;;23.20;39.00;;;;;;5047383;28;20348;-43
2022/04/15 02:34:55;;;;;;;3.05;1.65;;;23.20;39.10;;;;;;5047814;28;20027;-43
2022/04/15 02:37:21;;;;;;;2.38;1.25;;;23.30;39.10;;;;;;5048086;28;20629;-43
2022/04/15 02:39:48;;;;;;;2.13;1.35;;;23.20;38.90;;;;;;5041154;28;20477;-43
2022/04/15 02:42:14;;;;;;;2.50;1.23;;;23.20;38.90;;;;;;5028008;28;20583;-43
2022/04/15 02:44:40;;;;;;;2.88;1.35;;;23.20;38.90;;;;;;5027248;28;20249;-42
2022/04/15 02:47:07;;;;;;;2.78;1.35;;;23.20;38.90;;;;;;5027389;28;20308;-43
2022/04/15 02:49:33;;;;;;;2.75;1.30;;;23.20;38.90;;;;;;5027771;28;20033;-43
2022/04/15 02:51:59;;;;;;;2.35;1.20;;;23.20;38.90;;;;;;5037360;28;20047;-43
2022/04/15 02:54:24;;;;;;;2.83;1.35;;;23.20;38.90;;;;;;5046989;28;20021;-43
2022/04/15 02:56:50;;;;;;;2.90;1.30;;;23.20;39.00;;;;;;5047230;28;20059;-43
2022/04/15 02:59:16;;;;;;;2.47;1.20;;;23.20;38.90;;;;;;5047063;28;20021;-43
2022/04/15 03:01:44;;;;;;;3.15;1.40;;;23.20;38.90;;;;;;5046980;28;20033;-43
2022/04/15 03:04:10;;;;;;;3.20;1.55;;;23.20;38.80;;;;;;5046694;28;20089;-43
2022/04/15 03:06:35;;;;;;;3.00;1.40;;;23.20;38.90;;;;;;5046821;28;20773;-43
2022/04/15 03:09:01;;;;;;;2.35;1.15;;;23.20;38.90;;;;;;5045339;28;20112;-43
2022/04/15 03:11:27;;;;;;;2.40;1.40;;;23.20;39.00;;;;;;5046525;28;20064;-42
2022/04/15 03:13:52;;;;;;;2.78;1.50;;;23.20;39.00;;;;;;5046731;28;20090;-43
2022/04/15 03:16:18;;;;;;;2.70;1.42;;;23.20;38.90;;;;;;5047366;28;20052;-43
2022/04/15 03:18:44;;;;;;;2.90;1.55;;;23.20;38.90;;;;;;5030470;28;20154;-43
2022/04/15 03:21:09;;;;;;;2.38;1.40;;;23.20;39.00;;;;;;5026644;28;20243;-43
2022/04/15 03:23:35;;;;;;;2.45;1.35;;;23.20;39.10;;;;;;5026057;28;20033;-43
2022/04/15 03:26:01;;;;;;;3.05;1.45;;;23.20;38.90;;;;;;5026969;28;20029;-42
2022/04/15 03:28:26;;;;;;;2.70;1.60;;;23.20;38.80;;;;;;5025854;28;20393;-43
2022/04/15 03:30:52;;;;;;;2.85;1.67;;;23.20;38.90;;;;;;5026734;28;20041;-42
2022/04/15 03:33:18;;;;;;;2.72;1.60;;;23.20;38.90;;;;;;5026161;28;20505;-43
2022/04/15 03:35:43;;;;;;;2.33;1.15;;;23.20;38.90;;;;;;5026420;28;20164;-43
2022/04/15 03:38:09;;;;;;;2.30;1.30;;;23.20;38.80;;;;;;5045484;28;20075;-43
2022/04/15 03:40:35;;;;;;;3.13;1.48;;;23.20;38.80;;;;;;5040567;28;20030;-43
2022/04/15 03:43:01;;;;;;;2.92;1.42;;;23.20;38.80;;;;;;5046497;28;20393;-43
2022/04/15 03:45:26;;;;;;;2.65;1.30;;;23.10;38.90;;;;;;5046348;28;20021;-43
2022/04/15 03:47:56;;;;;;;3.13;1.63;;;23.10;38.90;;;;;;5038300;28;20476;-43
2022/04/15 03:50:22;;;;;;;2.40;1.38;;;23.10;38.90;;;;;;5026165;28;20030;-43
2022/04/15 03:52:49;;;;;;;2.53;1.40;;;23.20;38.90;;;;;;5041847;28;20384;-43
2022/04/15 03:55:20;;;;;;;2.63;1.48;;;23.20;38.90;;;;;;5046343;28;20120;-43
2022/04/15 03:57:46;;;;;;;3.22;1.65;;;23.10;39.00;;;;;;5045788;28;20043;-42
2022/04/15 04:00:23;;;;;;;2.88;1.40;;;23.20;38.90;;;;;;5044654;28;20047;-43
2022/04/15 04:02:54;;;;;;;2.83;1.17;;;23.10;39.00;;;;;;5045360;28;20341;-43
2022/04/15 04:05:21;;;;;;;2.63;1.50;;;23.20;39.00;;;;;;5046286;28;20032;-43
2022/04/15 04:07:47;;;;;;;2.63;1.42;;;23.20;38.90;;;;;;5045975;28;20129;-42
2022/04/15 04:10:14;;;;;;;3.03;1.50;;;23.10;38.90;;;;;;5046304;28;20388;-43
2022/04/15 04:12:41;;;;;;;2.97;1.40;;;23.20;38.90;;;;;;5045972;28;20021;-43
2022/04/15 04:15:08;;;;;;;2.92;1.75;;;23.10;38.90;;;;;;5045976;28;20021;-43
2022/04/15 04:17:34;;;;;;;2.63;1.52;;;23.10;39.00;;;;;;5039949;28;20543;-42
2022/04/15 04:20:01;;;;;;;2.63;1.40;;;23.10;39.00;;;;;;5025834;28;20062;-43
2022/04/15 04:22:31;;;;;;;2.70;1.48;;;23.10;38.90;;;;;;5037963;28;20036;-42
2022/04/15 04:24:57;;;;;;;2.28;1.17;;;23.20;39.00;;;;;;5045225;28;20213;-43
2022/04/15 04:27:23;;;;;;;2.40;1.38;;;23.10;39.10;;;;;;5045663;28;20035;-42
2022/04/15 04:29:48;;;;;;;2.58;1.38;;;23.20;39.10;;;;;;5045240;28;20075;-43
2022/04/15 04:32:15;;;;;;;2.80;1.45;;;23.10;39.20;;;;;;5045246;28;20401;-43
2022/04/15 04:34:40;;;;;;;2.90;1.73;;;23.10;39.20;;;;;;5045174;28;20021;-42
2022/04/15 04:37:06;;;;;;;2.80;1.48;;;23.10;39.30;;;;;;5045148;28;20028;-43
2022/04/15 04:39:32;;;;;;;3.00;1.67;;;23.20;39.30;;;;;;5045181;28;20043;-42
2022/04/15 04:41:58;;;;;;;2.75;1.55;;;23.20;39.30;;;;;;5040455;28;20396;-43
2022/04/15 04:44:24;;;;;;;1.90;1.02;;;23.20;39.30;;;;;;5044471;28;20033;-43
2022/04/15 04:46:51;;;;;;;3.65;2.03;;;23.20;39.30;;;;;;5044902;28;20043;-43
2022/04/15 04:49:17;;;;;;;3.25;1.65;;;23.20;39.30;;;;;;5025068;28;20040;-43
2022/04/15 04:51:43;;;;;;;2.63;1.40;;;23.20;39.30;;;;;;5030733;28;20297;-43
2022/04/15 04:54:09;;;;;;;2.47;1.40;;;23.20;39.20;;;;;;5044732;28;20662;-43
2022/04/15 04:56:34;;;;;;;3.22;1.65;;;23.20;39.20;;;;;;5045496;28;20025;-43
2022/04/15 04:59:00;;;;;;;2.95;1.63;;;23.20;39.20;;;;;;5045162;28;20144;-43
2022/04/15 05:01:26;;;;;;;2.58;1.40;;;23.20;39.10;;;;;;5043892;28;20535;-43
2022/04/15 05:03:51;;;;;;;2.70;1.50;;;23.20;39.10;;;;;;5043716;28;20580;-44
2022/04/15 05:06:17;;;;;;;3.10;1.65;;;23.20;39.70;;;;;;5043550;28;20530;-43
2022/04/15 05:08:42;;;;;;;2.67;1.60;;;23.30;39.10;;;;;;5043650;28;20530;-43
2022/04/15 05:11:08;;;;;;;2.80;1.52;;;23.30;39.20;;;;;;5044724;28;20541;-42
2022/04/15 05:13:34;;;;;;;2.50;1.35;;;23.30;39.20;;;;;;5043494;28;20036;-43
2022/04/15 05:15:59;;;;;;;2.70;1.55;;;23.30;39.20;;;;;;5044130;28;20381;-43
2022/04/15 05:18:25;;;;;;;2.50;1.23;;;23.30;39.10;;;;;;5029331;28;20636;-43
2022/04/15 05:20:51;;;;;;;2.65;1.60;;;23.30;39.10;;;;;;5023708;28;20068;-42
2022/04/15 05:23:16;;;;;;;3.53;1.58;;;23.30;39.10;;;;;;5040506;28;20373;-43
2022/04/15 05:25:42;;;;;;;2.53;1.52;;;23.30;39.10;;;;;;5043935;28;20090;-43
2022/04/15 05:28:08;;;;;;;2.60;1.50;;;23.30;39.00;;;;;;5044104;28;20032;-43
2022/04/15 05:30:33;;;;;;;2.92;1.60;;;23.30;39.00;;;;;;5037925;28;20440;-43
2022/04/15 05:32:59;;;;;;;3.05;1.50;;;23.30;39.00;;;;;;5040449;28;20096;-42
2022/04/15 05:35:25;;;;;;;2.28;1.35;;;23.30;39.00;;;;;;5042743;28;20028;-43
2022/04/15 05:37:51;;;;;;;2.22;1.20;;;23.30;39.00;;;;;;5042075;28;20036;-43
2022/04/15 05:40:16;;;;;;;2.63;1.50;;;23.30;38.90;;;;;;5042418;28;20028;-43
2022/04/15 05:42:42;;;;;;;2.80;1.48;;;23.30;38.90;;;;;;5040712;28;20569;-42
2022/04/15 05:45:09;;;;;;;2.08;1.23;;;23.30;38.90;;;;;;5041887;28;20425;-43
2022/04/15 05:47:34;;;;;;;2.55;1.25;;;23.40;38.90;;;;;;5042103;28;20424;-43
2022/04/15 05:50:00;;;;;;;3.20;1.60;;;23.30;38.90;;;;;;5042586;28;20017;-43
2022/04/15 05:52:26;;;;;;;2.95;1.55;;;23.40;39.00;;;;;;5045649;28;20197;-43
2022/04/15 05:54:51;;;;;;;2.83;1.50;;;23.30;39.00;;;;;;5045663;28;20025;-43
2022/04/15 05:57:19;;;;;;;4.32;1.60;;;23.40;39.00;;;;;;5046796;28;20029;-42
2022/04/15 05:59:45;;;;;;;2.47;1.38;;;23.40;39.20;;;;;;5044110;28;20021;-43
2022/04/15 06:02:10;;;;;;;2.65;1.17;;;23.30;39.10;;;;;;5045192;28;20025;-43
2022/04/15 06:04:36;;;;;;;2.33;1.38;;;23.40;39.10;;;;;;5044891;28;20035;-43
2022/04/15 06:07:02;;;;;;;2.35;1.20;;;23.40;39.00;;;;;;5044261;28;20072;-43
2022/04/15 06:09:28;;;;;;;2.47;1.27;;;23.40;39.20;;;;;;5044275;28;20041;-43
2022/04/15 06:11:55;;;;;;;2.75;1.33;;;23.40;39.10;;;;;;5045900;28;20625;-43
2022/04/15 06:14:22;;;;;;;3.22;1.55;;;23.40;39.10;;;;;;5046142;28;20048;-43
2022/04/15 06:16:48;;;;;;;2.38;1.40;;;23.40;39.10;;;;;;5044157;28;20176;-43
2022/04/15 06:19:14;;;;;;;2.88;1.40;;;23.40;39.10;;;;;;5042838;28;20021;-43
2022/04/15 06:21:40;;;;;;;3.28;1.50;;;23.40;39.10;;;;;;5044187;28;20067;-43
2022/04/15 06:24:08;;;;;;;2.83;1.40;;;23.40;39.00;;;;;;5044647;28;20056;-43
2022/04/15 06:26:35;;;;;;;2.72;1.30;;;23.40;39.00;;;;;;5045615;28;20056;-43
2022/04/15 06:29:01;;;;;;;2.92;1.42;;;23.40;38.90;;;;;;5045799;28;20052;-43
2022/04/15 06:31:27;;;;;;;4.85;1.60;;;23.40;39.10;;;;;;5044077;28;20855;-43
2022/04/15 06:33:53;;;;;;;3.28;1.60;;;23.40;39.20;;;;;;5041033;28;20021;-43
2022/04/15 06:36:19;;;;;;;4.32;1.60;;;23.40;39.30;;;;;;5043242;28;20107;-43
2022/04/15 06:38:45;;;;;;;2.97;1.67;;;23.40;39.30;;;;;;5036355;28;20674;-43
2022/04/15 06:41:11;;;;;;;3.72;1.67;;;23.40;39.40;;;;;;5034547;28;20111;-43
2022/04/15 06:43:37;;;;;;;2.72;1.50;;;23.40;39.50;;;;;;5034405;28;20067;-43
2022/04/15 06:46:03;;;;;;;2.75;1.60;;;23.40;39.50;;;;;;5034385;28;20025;-43
2022/04/15 06:48:29;;;;;;;3.22;1.33;;;23.40;39.40;;;;;;5029983;28;20297;-43
2022/04/15 06:50:55;;;;;;;2.33;1.23;;;23.40;39.40;;;;;;5035250;28;20080;-43
2022/04/15 06:53:24;;;;;;;4.28;1.90;;;23.40;39.40;;;;;;5033974;28;20125;-43
2022/04/15 06:55:50;;;;;;;3.42;1.65;;;23.40;39.40;;;;;;5029219;28;20064;-42
2022/04/15 06:58:16;;;;;;;2.47;1.25;;;23.40;39.40;;;;;;5035754;28;20201;-43
2022/04/15 07:00:42;;;;;;;2.95;1.50;;;23.40;39.40;;;;;;5043242;28;20021;-43
2022/04/15 07:03:09;;;;;;;3.53;1.50;;;23.40;39.40;;;;;;5044298;28;20268;-43
2022/04/15 07:05:35;;;;;;;2.00;1.05;;;23.40;40.00;;;;;;5043389;28;20049;-43
2022/04/15 07:08:00;;;;;;;2.60;1.25;;;23.40;39.50;;;;;;5026068;28;20033;-43
2022/04/15 07:10:26;;;;;;;12.10;1.80;;;23.50;39.60;;;;;;5033043;28;20048;-43
2022/04/15 07:12:52;;;;;;;3.70;1.75;;;23.50;39.60;;;;;;5035316;28;20025;-43
2022/04/15 07:15:17;;;;;;;2.58;1.30;;;23.50;39.90;;;;;;5018880;28;20099;-44
2022/04/15 07:17:43;;;;;;;2.33;1.38;;;23.40;39.80;;;;;;5033662;28;20112;-44
2022/04/15 07:20:09;;;;;;;3.47;1.83;;;23.50;40.10;;;;;;5030967;28;20112;-44
2022/04/15 07:22:35;;;;;;;3.25;1.40;;;23.50;40.20;;;;;;5033299;28;20044;-44
2022/04/15 07:25:00;;;;;;;4.97;1.42;;;23.50;40.00;;;;;;5045248;28;20029;-44
2022/04/15 07:27:26;;;;;;;2.58;1.40;;;23.50;40.10;;;;;;5044743;28;20029;-43
2022/04/15 07:29:53;;;;;;;2.92;1.50;;;23.50;40.10;;;;;;5045828;28;20408;-44
2022/04/15 07:32:25;;;;;;;3.63;1.38;;;23.50;40.20;;;;;;5031862;28;20068;-46
2022/04/15 07:34:51;;;;;;;;;;;23.50;41.20;;;;;;5040010;28;20389;-45
2022/04/15 07:37:17;;;;;;;3.85;1.67;;;23.50;40.90;;;;;;5044685;28;19913;-45
2022/04/15 07:39:43;;;;;;;3.35;1.58;;;23.50;41.10;;;;;;5041956;28;20028;-44
2022/04/15 07:42:11;;;;;;;3.20;1.58;;;23.50;41.20;;;;;;5031178;28;20108;-44
2022/04/15 07:44:38;;;;;;;3.75;1.65;;;23.50;41.20;;;;;;5042745;28;20036;-45
2022/04/15 07:47:04;;;;;;;3.88;2.00;;;23.50;41.30;;;;;;5044066;28;20116;-44
2022/04/15 07:49:30;;;;;;;3.95;1.88;;;23.50;41.60;;;;;;5045769;28;20405;-44
2022/04/15 07:51:56;;;;;;;3.63;1.75;;;23.50;41.40;;;;;;5044878;28;20033;-43
2022/04/15 07:54:21;;;;;;;3.55;1.80;;;23.50;41.30;;;;;;5044768;28;20420;-43
2022/04/15 07:56:47;;;;;;;2.53;1.55;;;23.50;41.60;;;;;;5041008;28;20021;-43
2022/04/15 07:59:13;;;;;;;2.83;1.38;;;23.50;41.50;;;;;;5028603;28;20056;-43
2022/04/15 08:01:39;;;;;;;3.00;1.30;;;23.50;41.30;;;;;;5029369;28;20041;-44
2022/04/15 08:04:05;;;;;;;2.67;1.30;;;23.60;41.50;;;;;;5031077;28;20090;-44
2022/04/15 08:06:31;;;;;;;2.88;1.60;;;23.60;41.30;;;;;;5025647;28;20029;-44
2022/04/15 08:08:58;;;;;;;3.45;1.85;;;23.60;41.40;;;;;;5028431;28;20025;-44
2022/04/15 08:11:25;;;;;;;4.25;1.60;;;23.60;41.10;;;;;;5025566;28;20041;-44
2022/04/15 08:13:51;;;;;;;2.90;1.67;;;23.60;40.80;;;;;;5025000;28;20045;-44
2022/04/15 08:16:17;;;;;;;3.40;1.30;;;23.60;41.00;;;;;;5025775;28;20034;-42
2022/04/15 08:18:43;;;;;;;3.00;1.25;;;23.60;41.10;;;;;;5025716;28;20025;-43
2022/04/15 08:21:09;;;;;;;3.08;1.40;;;23.60;40.90;;;;;;5025674;28;20516;-43
2022/04/15 08:23:35;;;;;;;5.80;1.77;;;23.60;40.90;;;;;;5023860;28;20045;-43
2022/04/15 08:26:01;;;;;;;3.20;1.90;;;23.60;40.90;;;;;;5025788;28;20119;-43
2022/04/15 08:28:26;;;;;;;2.70;1.40;;;23.60;40.70;;;;;;5024964;28;20351;-43
2022/04/15 08:30:52;;;;;;;2.75;1.50;;;23.60;40.90;;;;;;5033691;28;20264;-44
2022/04/15 08:33:18;;;;;;;2.58;1.30;;;23.70;40.90;;;;;;5043447;28;20028;-44
2022/04/15 08:35:44;;;;;;;2.58;1.40;;;23.70;40.70;;;;;;5043327;28;20108;-45
2022/04/15 08:38:09;;;;;;;3.47;1.23;;;23.60;40.50;;;;;;5043291;28;20064;-45
2022/04/15 08:40:37;;;;;;;3.47;1.63;;;23.70;40.70;;;;;;5043539;28;20650;-45
2022/04/15 08:43:06;;;;;;;4.65;1.90;;;23.70;41.00;;;;;;5043455;28;20020;-45
2022/04/15 08:45:33;;;;;;;2.83;1.50;;;23.60;41.00;;;;;;5043460;28;20480;-44
2022/04/15 08:48:01;;;;;;;2.63;1.50;;;23.70;41.20;;;;;;5042460;28;20036;-43
2022/04/15 08:50:28;;;;;;;2.63;1.40;;;23.70;41.20;;;;;;5043312;28;20024;-45
2022/04/15 08:52:55;;;;;;;3.30;1.50;;;23.70;40.90;;;;;;5042070;28;20029;-43
2022/04/15 08:55:21;;;;;;;2.55;1.35;;;23.60;40.70;;;;;;5041935;28;20017;-45
2022/04/15 08:57:50;;;;;;;3.22;1.50;;;23.70;41.00;;;;;;5043659;28;20055;-45
2022/04/15 09:00:17;;;;;;;3.20;1.52;;;23.70;41.20;;;;;;5043995;28;20143;-46
2022/04/15 09:02:43;;;;;;;3.88;1.95;;;23.70;40.90;;;;;;5043467;28;20031;-45
2022/04/15 09:05:09;;;;;;;2.88;1.33;;;23.70;41.20;;;;;;5043667;28;20456;-44
2022/04/15 09:07:36;;;;;;;5.57;1.90;;;23.70;41.10;;;;;;5043235;28;20478;-46
2022/04/15 09:10:07;;;;;;;3.10;1.40;;;23.70;41.00;;;;;;5023678;28;20031;-45
2022/04/15 09:12:35;;;;;;;4.65;1.92;;;23.70;40.90;;;;;;5023830;28;20435;-46
2022/04/15 09:15:12;;;;;;;3.28;1.50;;;23.70;40.90;;;;;;5023787;28;20366;-44
2022/04/15 09:17:49;;;;;;;4.15;1.55;;;23.70;41.00;;;;;;5023998;28;20486;-44
2022/04/15 09:20:16;;;;;;;2.97;1.80;;;23.70;41.50;;;;;;5029789;28;20036;-45
2022/04/15 09:22:42;;;;;;;3.35;1.65;;;23.80;41.40;;;;;;5030980;28;20030;-44
2022/04/15 09:25:10;;;;;;;3.50;1.58;;;23.70;41.00;;;;;;5023139;28;20664;-44
2022/04/15 09:27:36;;;;;;;3.40;1.80;;;23.80;41.30;;;;;;5024027;28;20573;-45
2022/04/15 09:30:04;;;;;;;2.95;1.48;;;23.70;41.30;;;;;;5024559;28;20035;-45
2022/04/15 09:32:30;;;;;;;3.13;1.65;;;23.80;41.10;;;;;;5023060;28;20063;-45
2022/04/15 09:35:00;;;;;;;2.53;1.45;;;23.80;40.90;;;;;;5024051;28;20025;-45
2022/04/15 09:37:39;;;;;;;3.03;1.70;;;23.80;40.80;;;;;;5029835;28;20238;-45
2022/04/15 09:40:18;;;;;;;3.35;1.33;;;23.80;40.70;;;;;;5041038;28;20059;-46
2022/04/15 09:42:49;;;;;;;2.47;1.60;;;23.80;40.50;;;;;;5041514;28;20029;-46
2022/04/15 09:45:22;;;;;;;2.95;1.40;;;23.80;40.30;;;;;;5043604;28;20032;-46
2022/04/15 09:47:59;;;;;;;4.15;1.67;;;23.80;40.30;;;;;;5036038;28;20033;-45
2022/04/15 09:50:37;;;;;;;3.70;1.48;;;23.80;40.70;;;;;;5042955;28;20036;-45
2022/04/15 09:53:10;;;;;;;4.03;1.90;;;23.80;40.90;;;;;;5043011;28;20067;-45
2022/04/15 09:55:39;;;;;;;2.85;1.58;;;23.90;40.70;;;;;;5043403;28;20029;-46
2022/04/15 09:58:11;;;;;;;6.18;1.77;;;23.80;40.40;;;;;;5043751;28;20025;-45
2022/04/15 10:00:38;;;;;;;5.90;1.27;;;23.80;40.10;;;;;;5043853;28;20313;-45
2022/04/15 10:03:15;;;;;;;3.80;1.90;;;23.80;39.90;;;;;;5043396;28;20069;-45
2022/04/15 10:05:42;;;;;;;3.42;1.60;;;23.80;39.80;;;;;;5031181;28;20052;-45
2022/04/15 10:08:09;;;;;;;2.88;1.30;;;23.80;39.80;;;;;;5037879;28;20124;-45
2022/04/15 10:10:35;;;;;;;3.58;1.63;;;23.80;39.80;;;;;;5039303;28;20094;-44
2022/04/15 10:13:04;;;;;;;3.63;1.73;;;23.80;39.80;;;;;;5022657;28;20516;-43
2022/04/15 10:15:31;;;;;;;2.97;1.40;;;23.80;39.70;;;;;;5036986;28;20037;-44
2022/04/15 10:17:59;;;;;;;4.93;1.88;;;23.80;39.80;;;;;;5036751;28;20086;-45
2022/04/15 10:20:25;;;;;;;4.50;1.92;;;23.80;39.80;;;;;;5027592;28;20485;-45
2022/04/15 10:22:53;;;;;;;2.58;1.35;;;23.80;39.80;;;;;;5040662;28;20037;-45
2022/04/15 10:25:18;;;;;;;3.28;1.42;;;23.80;39.90;;;;;;5041753;28;20025;-45
2022/04/15 10:27:45;;;;;;;5.38;2.10;;;23.80;39.90;;;;;;5042656;28;20031;-44
2022/04/15 10:30:21;;;;;;;5.05;2.28;;;23.80;39.80;;;;;;5034623;28;20026;-46
2022/04/15 10:32:47;;;;;;;4.40;2.50;;;23.80;40.50;;;;;;5036723;28;20032;-44
2022/04/15 10:35:26;;;;;;;4.18;2.38;;;23.80;40.40;;;;;;5040236;28;20679;-45
2022/04/15 10:37:55;;;;;;;3.50;1.95;;;23.80;40.60;;;;;;5038011;28;20029;-44
2022/04/15 10:40:26;;;;;;;4.00;2.42;;;23.80;40.80;;;;;;5046264;28;20017;-44
2022/04/15 10:42:52;;;;;;;4.25;2.17;;;23.80;40.60;;;;;;5046490;28;20033;-44
2022/04/15 10:45:29;;;;;;;4.50;2.10;;;23.80;40.50;;;;;;5044424;28;20111;-45
2022/04/15 10:47:58;;;;;;;3.42;2.08;;;23.80;40.50;;;;;;5037802;28;20450;-45
2022/04/15 10:50:26;;;;;;;3.70;2.60;;;23.70;40.30;;;;;;5026286;28;20174;-45
2022/04/15 10:52:52;;;;;;;5.30;2.78;;;23.80;40.30;;;;;;5034781;28;20552;-44
2022/04/15 10:55:18;;;;;;;5.10;3.00;;;23.70;40.50;;;;;;5046636;28;20038;-45
2022/04/15 10:57:44;;;;;;;4.38;2.95;;;23.70;40.50;;;;;;5046973;28;20033;-44
2022/04/15 11:03:04;;;;;;;4.50;2.75;;;23.80;40.70;;;;;;5026359;28;20024;-45
2022/04/15 11:05:35;;;;;;;4.57;3.20;;;23.80;40.80;;;;;;5031368;28;20071;-45
2022/04/15 11:08:11;;;;;;;4.30;2.72;;;23.80;40.80;;;;;;5046310;28;20444;-44
2022/04/15 11:10:42;;;;;;;5.00;3.30;;;23.80;40.80;;;;;;5046457;28;20313;-45
2022/04/15 11:13:23;;;;;;;4.72;3.15;;;23.80;40.80;;;;;;5046151;28;20110;-43
2022/04/15 11:16:06;;;;;;;4.82;3.42;;;23.70;40.40;;;;;;5046340;28;20060;-43
2022/04/15 11:19:00;;;;;;;4.72;2.85;;;23.70;40.40;;;;;;5044748;28;20491;-44
2022/04/15 11:21:36;;;;;;;5.13;3.22;;;23.70;40.50;;;;;;5026290;28;20567;-44
2022/04/15 11:24:13;;;;;;;5.35;3.08;;;23.70;40.70;;;;;;5025640;28;20038;-44
2022/04/15 11:26:42;;;;;;;5.13;3.10;;;23.70;40.70;;;;;;5027088;28;20029;-44
2022/04/15 11:29:11;;;;;;;5.57;3.05;;;23.70;40.90;;;;;;5041019;28;20052;-44
2022/04/15 11:31:38;;;;;;;4.25;2.65;;;23.70;40.90;;;;;;5045761;28;20393;-43
2022/04/15 11:34:11;;;;;;;5.03;3.03;;;23.70;40.60;;;;;;5043411;28;20025;-43
2022/04/15 11:36:42;;;;;;;3.85;2.67;;;23.70;40.20;;;;;;5045491;28;20029;-42
2022/04/15 11:39:10;;;;;;;7.07;3.30;;;23.70;40.20;;;;;;5043977;28;20021;-42
2022/04/15 11:41:44;;;;;;;5.03;3.13;;;23.70;40.30;;;;;;5044949;28;20036;-43
2022/04/15 11:44:10;;;;;;;4.43;3.13;;;23.70;40.30;;;;;;5042308;28;20040;-42
2022/04/15 11:46:36;;;;;;;4.80;3.28;;;23.70;40.20;;;;;;5044187;28;20021;-42
2022/04/15 11:49:04;;;;;;;5.20;3.28;;;23.70;40.20;;;;;;5044180;28;20678;-43
2022/04/15 11:51:30;;;;;;;4.88;3.80;;;23.70;40.60;;;;;;5042977;28;20378;-42
2022/04/15 11:53:57;;;;;;;5.43;3.45;;;23.70;40.80;;;;;;5040989;28;20076;-42
2022/04/15 11:56:26;;;;;;;5.22;3.50;;;23.70;40.80;;;;;;5025899;28;20134;-43
2022/04/15 11:58:53;;;;;;;5.40;3.08;;;23.70;40.70;;;;;;5025391;28;20105;-43
2022/04/15 12:01:31;;;;;;;4.60;2.78;;;23.70;40.60;;;;;;5025145;28;20029;-43
2022/04/15 12:03:58;;;;;;;4.68;3.05;;;23.70;40.60;;;;;;5024126;28;20048;-43
2022/04/15 12:06:29;;;;;;;5.28;2.67;;;23.70;40.40;;;;;;5039369;28;20025;-43
2022/04/15 12:08:57;;;;;;;4.85;3.15;;;23.70;40.40;;;;;;5030582;28;20088;-43
2022/04/15 12:11:24;;;;;;;4.57;2.78;;;23.80;40.40;;;;;;5044733;28;20036;-43
2022/04/15 12:13:58;;;;;;;5.60;3.03;;;23.80;40.40;;;;;;5030914;28;20021;-43
2022/04/15 12:16:25;;;;;;;4.95;2.88;;;23.80;40.40;;;;;;5024913;28;20524;-43
2022/04/15 12:18:53;;;;;;;3.75;2.63;;;23.90;40.50;;;;;;5024684;28;20111;-43
2022/04/15 12:21:19;;;;;;;4.28;2.92;;;23.90;40.50;;;;;;5024888;28;20033;-43
2022/04/15 12:24:06;;;;;;;4.35;3.00;;;23.90;40.40;;;;;;5037670;28;20440;-43
2022/04/15 12:26:52;;;;;;;4.00;2.80;;;24.00;40.40;;;;;;5044505;28;20460;-43
2022/04/15 12:32:17;;;;;;;3.50;2.33;;;24.00;40.30;;;;;;5044506;28;20433;-43
2022/04/15 12:34:47;;;;;;;4.30;2.60;;;24.10;40.40;;;;;;5031066;28;20034;-43
2022/04/15 12:37:53;;;;;;;4.75;2.90;;;24.10;40.30;;;;;;5024444;28;20394;-45
2022/04/15 12:40:19;;;;;;;3.78;2.55;;;24.10;40.30;;;;;;5024652;28;20050;-44
2022/04/15 12:42:49;;;;;;;3.60;2.42;;;24.10;40.30;;;;;;5034452;28;20559;-45
2022/04/15 12:45:22;;;;;;;5.15;2.40;;;24.10;40.20;;;;;;5033208;28;20033;-44
2022/04/15 12:48:01;;;;;;;3.45;2.38;;;24.10;40.30;;;;;;5032667;28;20033;-45
2022/04/15 12:50:34;;;;;;;3.50;2.00;;;24.10;40.40;;;;;;5033480;28;20604;-44
2022/04/15 12:53:00;;;;;;;3.13;2.03;;;24.10;40.50;;;;;;5033434;28;20030;-46
2022/04/15 12:55:31;;;;;;;3.38;1.98;;;24.10;40.60;;;;;;5033306;28;20037;-45